METAR v bližini

 

LJLJ - Ljubljana/Brnik, Slovenia
Oddaljenost od postaje: W 41km
Podatki zajeti: 25/01/2021 07:30
Pretežno oblačno
Pretežno oblačno
 Veter iz smeri spremenljiv
Veter: spremenljiv 2 km/h
Temperatura: -1°C
Rosišče: -2°C
Vlažnost: 93%
Tlak: 1001 hPa
Oblačnost: Pretežno oblačno
Vidljivost: 7 km
Podrobnosti o oblakih: Rahlo oblačno 61 m
Pretežno oblačno 244 m
2021/01/25 06:30 LJLJ 250630Z VRB01KT 7000 FEW002 BKN008 M01/M02 Q1001 NOSIG
LJMB - Maribor, Slovenia
Oddaljenost od postaje: NE 63km
Podatki zajeti: 25/01/2021 07:30
Megla ki zmrzuje, Pretežno oblačno
Megla ki zmrzuje, Pretežno oblačno
 Veter iz smeri spremenljiv
Veter: spremenljiv 2 km/h
Temperatura: -4°C
Rosišče: -4°C
Vlažnost: 100%
Tlak: 1001 hPa
Stanje: Megla ki zmrzuje
Oblačnost: Pretežno oblačno
Vidljivost: 1 km
Podrobnosti o oblakih: Pretežno oblačno 91 m
2021/01/25 06:30 LJMB 250630Z VRB01KT 0600 R32/0250N FZFG BKN003 M04/M04 Q1001
 
LJPZ - Portoroz, Slovenia
Oddaljenost od postaje: SW 130km
Podatki zajeti: 25/01/2021 07:30
Jasno
Jasno
 Veter iz smeri ESE
Veter: ESE 9 km/h
Temperatura: 3°C
Občutek mraza zaradi vetra: 0°C
Rosišče: -1°C
Vlažnost: 75%
Tlak: 1001 hPa
Stanje: Jasno
Vidljivost: večja od 10 km
2021/01/25 06:30 LJPZ 250630Z 12005KT CAVOK 03/M01 Q1001
LJCE - Cerklje, Slovenia
Oddaljenost od postaje: ESE 49km
Podatki zajeti: 25/01/2021 07:30
Megla ki zmrzuje, Oblačno
Megla ki zmrzuje, Oblačno
 Veter iz smeri S
Veter: S 4 km/h
Temperatura: -2°C
Rosišče: -2°C
Vlažnost: 100%
Tlak: 1003 hPa
Stanje: Megla ki zmrzuje
Oblačnost: Oblačno
Vidljivost: 0 km
Podrobnosti o oblakih: Oblačno 61 m
2021/01/25 06:30 LJCE 250630Z 18002KT 0200 FZFG VV002 M02/M02 Q1003 RMK RED
 
LDZA - Zagreb/Pleso, Croatia
Oddaljenost od postaje: ESE 96km
Podatki zajeti: 25/01/2021 07:30
Megla v pasovih, Rahlo oblačno
Megla v pasovih, Rahlo oblačno
 Veter iz smeri calm
Veter: Calm
Temperatura: -2°C
Rosišče: -2°C
Vlažnost: 100%
Tlak: 1002 hPa
Stanje: Patches of Fog
Oblačnost: Rahlo oblačno
Vidljivost: 3 km
Podrobnosti o oblakih: Rahlo oblačno 1067 m
2021/01/25 06:30 LDZA 250630Z 00000KT 3000 BCFG FEW035 M02/M02 Q1002 BECMG CAVOK
LDRI - Rijeka/Omisalj, Croatia
Oddaljenost od postaje: SSW 109km
Podatki zajeti: 25/01/2021 07:30
Jasno
Jasno
 Veter iz smeri SE
Veter: SE 11 km/h
Temperatura: 1°C
Občutek mraza zaradi vetra: -2°C
Rosišče: -2°C
Vlažnost: 81%
Tlak: 1001 hPa
Stanje: Jasno
Vidljivost: večja od 10 km
2021/01/25 06:30 LDRI 250630Z 13006KT CAVOK 01/M02 Q1001
 
LDPL - Pula, Croatia
Oddaljenost od postaje: SSW 164km
Podatki zajeti: 25/01/2021 07:30
Jasno
Jasno
 Veter iz smeri E
Veter: E 15 km/h
Temperatura: 2°C
Občutek mraza zaradi vetra: -2°C
Rosišče: 0°C
Vlažnost: 87%
Tlak: 1001 hPa
Stanje: Jasno
Vidljivost: večja od 10 km
2021/01/25 06:30 LDPL 250630Z 09008KT CAVOK 02/00 Q1001 NOSIG
LOWK - Klagenfurt(Civ/M, Austria
Oddaljenost od postaje: NW 76km
Podatki zajeti: 25/01/2021 07:20
Rahlo oblačno
Rahlo oblačno
 Veter iz smeri spremenljiv
Veter: spremenljiv 2 km/h
Temperatura: -3°C
Rosišče: -5°C
Vlažnost: 86%
Tlak: 1001 hPa
Oblačnost: Rahlo oblačno
Vidljivost: 10 km
Podrobnosti o oblakih: Rahlo oblačno 457 m
2021/01/25 06:20 LOWK 250620Z VRB01KT 9999 FEW015 M03/M05 Q1001 R10L/29//95 NOSIG
 
LOWG - Graz (mil/Civ), Austria
Oddaljenost od postaje: NNE 100km
Podatki zajeti: 25/01/2021 07:20
Megla ki zmrzuje, Oblačno
Megla ki zmrzuje, Oblačno
 Veter iz smeri spremenljiv
Veter: spremenljiv 2 km/h
Temperatura: -4°C
Rosišče: -4°C
Vlažnost: 100%
Tlak: 1001 hPa
Stanje: Megla ki zmrzuje
Oblačnost: Oblačno
Vidljivost: 0 km
Podrobnosti o oblakih: Oblačno 61 m
2021/01/25 06:20 LOWG 250620Z VRB01KT 0400 R17/0500N R35/0500N FZFG VV002 M04/M04 Q1001 R17/19//94 TEMPO 0300
LOAN - Wr.neustadt East, Austria
Oddaljenost od postaje: NNE 212km
Podatki zajeti: 24/01/2021 17:00
Ni posodobljen
Pretežno oblačno
Pretežno oblačno
 Veter iz smeri W
Veter: W 13 km/h
Oblačnost: Pretežno oblačno
Podrobnosti o oblakih: Rahlo oblačno 1067 m
Delno oblačno 2134 m
Pretežno oblačno 3048 m
2021/01/24 16:00 LOAN 241600Z 26007KT 30KM FEW035CU SCT070SC BKN100AC
 
LIPQ - Ronchi Legionari, Italy
Oddaljenost od postaje: SW 35km
Podatki zajeti: 25/01/2021 07:20
Pretežno oblačno
Pretežno oblačno
 Veter iz smeri NE
Veter: NE 6 km/h
Temperatura: 2°C
Rosišče: 0°C
Vlažnost: 87%
Tlak: 1001 hPa
Oblačnost: Pretežno oblačno
Vidljivost: 10 km
Podrobnosti o oblakih: Rahlo oblačno 701 m
Delno oblačno 3658 m
Pretežno oblačno 5486 m
2021/01/25 06:20 LIPQ 250620Z AUTO 05003KT 9999 FEW023/// SCT120/// BKN180/// 02/00 Q1001
LIVT - Trieste, Italy
Oddaljenost od postaje: WSW 109km
Podatki zajeti: 20/01/2021 18:55
Ni posodobljen
Meglica, Pretežno oblačno
Meglica, Pretežno oblačno
 Veter iz smeri spremenljiv
Veter: spremenljiv 0 km/h
Temperatura: 7°C
Rosišče: 6°C
Vlažnost: 93%
Tlak: 1020 hPa
Stanje: Meglica
Oblačnost: Pretežno oblačno
Vidljivost: 5 km
Podrobnosti o oblakih: Pretežno oblačno 1219 m
2021/01/20 17:55 LIVT 201755Z /////KT 5000 BR BKN040 07/06 Q1020 RMK OVC OVC060 QUK / QUL / VIS MAR 5 KM VIS MIN 5000
 
LIVO - Tarvisio, Italy
Oddaljenost od postaje: NNW 49km
Podatki zajeti: 20/01/2021 18:55
Ni posodobljen
Pretežno oblačno
Pretežno oblačno
 Veter iz smeri W
Veter: W 6 km/h
Temperatura: 3°C
Rosišče: 1°C
Vlažnost: 87%
Tlak: 1014 hPa
Oblačnost: Pretežno oblačno
Vidljivost: 10 km
Podrobnosti o oblakih: Pretežno oblačno 1067 m
2021/01/20 17:55 LIVO 201755Z 28003KT 9999 BKN035 03/01 Q1014 RMK BKN VIS MIN 9999
LIPZ - Venezia/Tessera, Italy
Oddaljenost od postaje: WSW 217km
Podatki zajeti: 25/01/2021 07:20
Delno oblačno
Delno oblačno
 Veter iz smeri NE
Veter: NE 13 km/h
Temperatura: 1°C
Občutek mraza zaradi vetra: -3°C
Rosišče: -2°C
Vlažnost: 81%
Tlak: 1000 hPa
Oblačnost: Delno oblačno
Vidljivost: 10 km
Podrobnosti o oblakih: Delno oblačno 914 m
2021/01/25 06:20 LIPZ 250620Z 04007KT 9999 SCT030 01/M02 Q1000 NOSIG
 
LHSM - Balaton, Hungary
Oddaljenost od postaje: ENE 177km
Podatki zajeti: 25/01/2021 07:15
Pretežno oblačno
Pretežno oblačno
 Veter iz smeri W
Veter: W 7 km/h
Temperatura: 1°C
Občutek mraza zaradi vetra: -2°C
Rosišče: 0°C
Vlažnost: 93%
Tlak: 1002 hPa
Oblačnost: Pretežno oblačno
Vidljivost: 10 km
Podrobnosti o oblakih: Rahlo oblačno 244 m
Pretežno oblačno 1951 m
2021/01/25 06:15 LHSM 250615Z AUTO 27004KT 230V300 9999 FEW008 BKN064 01/M00 Q1002 NOSIG